sensor_id;sensor_type;location;lat;lon;timestamp;temperature;humidity
578;DHT22;275;48.492;9.214;2022-10-16T00:01:25;19.40;45.30
578;DHT22;275;48.492;9.214;2022-10-16T00:03:52;19.60;44.80
578;DHT22;275;48.492;9.214;2022-10-16T00:06:20;19.40;45.30
578;DHT22;275;48.492;9.214;2022-10-16T00:08:48;19.60;45.10
578;DHT22;275;48.492;9.214;2022-10-16T00:11:20;19.60;44.60
578;DHT22;275;48.492;9.214;2022-10-16T00:13:49;19.70;44.30
578;DHT22;275;48.492;9.214;2022-10-16T00:16:18;19.60;44.40
578;DHT22;275;48.492;9.214;2022-10-16T00:18:45;19.70;44.40
578;DHT22;275;48.492;9.214;2022-10-16T00:21:14;19.90;44.10
578;DHT22;275;48.492;9.214;2022-10-16T00:23:41;19.60;44.40
578;DHT22;275;48.492;9.214;2022-10-16T00:26:10;19.60;44.50
578;DHT22;275;48.492;9.214;2022-10-16T00:28:39;19.20;45.30
578;DHT22;275;48.492;9.214;2022-10-16T00:31:08;19.30;45.20
578;DHT22;275;48.492;9.214;2022-10-16T00:33:36;19.70;44.30
578;DHT22;275;48.492;9.214;2022-10-16T00:36:05;19.60;44.20
578;DHT22;275;48.492;9.214;2022-10-16T00:38:32;19.40;45.00
578;DHT22;275;48.492;9.214;2022-10-16T00:40:59;19.40;45.00
578;DHT22;275;48.492;9.214;2022-10-16T00:43:36;19.30;45.20
578;DHT22;275;48.492;9.214;2022-10-16T00:46:09;19.10;45.70
578;DHT22;275;48.492;9.214;2022-10-16T00:48:37;19.00;46.30
578;DHT22;275;48.492;9.214;2022-10-16T00:51:06;19.10;45.70
578;DHT22;275;48.492;9.214;2022-10-16T00:53:34;19.40;45.10
578;DHT22;275;48.492;9.214;2022-10-16T00:56:02;19.50;44.80
578;DHT22;275;48.492;9.214;2022-10-16T00:58:31;19.50;44.60
578;DHT22;275;48.492;9.214;2022-10-16T01:00:58;19.60;44.10
578;DHT22;275;48.492;9.214;2022-10-16T01:03:29;19.70;43.80
578;DHT22;275;48.492;9.214;2022-10-16T01:06:08;20.00;43.20
578;DHT22;275;48.492;9.214;2022-10-16T01:08:45;19.80;43.80
578;DHT22;275;48.492;9.214;2022-10-16T01:11:19;20.00;43.30
578;DHT22;275;48.492;9.214;2022-10-16T01:13:53;19.90;43.10
578;DHT22;275;48.492;9.214;2022-10-16T01:16:28;20.10;42.70
578;DHT22;275;48.492;9.214;2022-10-16T01:19:02;20.00;43.20
578;DHT22;275;48.492;9.214;2022-10-16T01:21:36;20.20;42.50
578;DHT22;275;48.492;9.214;2022-10-16T01:24:11;20.10;42.40
578;DHT22;275;48.492;9.214;2022-10-16T01:29:23;20.30;42.30
578;DHT22;275;48.492;9.214;2022-10-16T01:31:55;20.20;42.30
578;DHT22;275;48.492;9.214;2022-10-16T01:34:28;20.20;42.30
578;DHT22;275;48.492;9.214;2022-10-16T01:37:02;20.40;42.00
578;DHT22;275;48.492;9.214;2022-10-16T01:39:35;20.30;42.20
578;DHT22;275;48.492;9.214;2022-10-16T01:42:07;20.00;43.00
578;DHT22;275;48.492;9.214;2022-10-16T01:44:37;20.00;42.90
578;DHT22;275;48.492;9.214;2022-10-16T01:47:06;19.80;43.50
578;DHT22;275;48.492;9.214;2022-10-16T01:49:36;20.00;43.20
578;DHT22;275;48.492;9.214;2022-10-16T01:52:06;20.30;43.20
578;DHT22;275;48.492;9.214;2022-10-16T01:54:36;20.30;42.60
578;DHT22;275;48.492;9.214;2022-10-16T01:57:04;20.30;42.10
578;DHT22;275;48.492;9.214;2022-10-16T01:59:34;20.50;41.80
578;DHT22;275;48.492;9.214;2022-10-16T02:02:07;20.50;41.90
578;DHT22;275;48.492;9.214;2022-10-16T02:04:37;20.50;41.90
578;DHT22;275;48.492;9.214;2022-10-16T02:07:05;20.40;41.80
578;DHT22;275;48.492;9.214;2022-10-16T02:09:34;20.60;41.60
578;DHT22;275;48.492;9.214;2022-10-16T02:12:06;20.50;41.90
578;DHT22;275;48.492;9.214;2022-10-16T02:14:38;20.00;42.90
578;DHT22;275;48.492;9.214;2022-10-16T02:17:12;19.60;44.10
578;DHT22;275;48.492;9.214;2022-10-16T02:19:40;19.80;43.70
578;DHT22;275;48.492;9.214;2022-10-16T02:22:10;19.70;44.20
578;DHT22;275;48.492;9.214;2022-10-16T02:24:47;19.60;44.40
578;DHT22;275;48.492;9.214;2022-10-16T02:27:19;19.80;43.90
578;DHT22;275;48.492;9.214;2022-10-16T02:29:52;19.90;43.30
578;DHT22;275;48.492;9.214;2022-10-16T02:32:28;20.00;43.30
578;DHT22;275;48.492;9.214;2022-10-16T02:34:58;20.00;43.00
578;DHT22;275;48.492;9.214;2022-10-16T02:37:27;20.00;43.40
578;DHT22;275;48.492;9.214;2022-10-16T02:39:56;19.80;44.10
578;DHT22;275;48.492;9.214;2022-10-16T02:42:28;19.90;43.80
578;DHT22;275;48.492;9.214;2022-10-16T02:44:56;20.00;43.40
578;DHT22;275;48.492;9.214;2022-10-16T02:47:24;20.00;43.40
578;DHT22;275;48.492;9.214;2022-10-16T02:49:51;19.90;43.40
578;DHT22;275;48.492;9.214;2022-10-16T02:52:18;19.80;44.00
578;DHT22;275;48.492;9.214;2022-10-16T02:54:44;19.90;43.70
578;DHT22;275;48.492;9.214;2022-10-16T02:57:11;20.10;43.30
578;DHT22;275;48.492;9.214;2022-10-16T02:59:38;20.10;42.80
578;DHT22;275;48.492;9.214;2022-10-16T03:02:05;20.20;42.80
578;DHT22;275;48.492;9.214;2022-10-16T03:04:36;20.30;42.40
578;DHT22;275;48.492;9.214;2022-10-16T03:07:03;20.10;42.80
578;DHT22;275;48.492;9.214;2022-10-16T03:09:30;20.00;43.20
578;DHT22;275;48.492;9.214;2022-10-16T03:11:57;20.00;42.70
578;DHT22;275;48.492;9.214;2022-10-16T03:14:24;20.10;43.40
578;DHT22;275;48.492;9.214;2022-10-16T03:16:51;19.90;43.40
578;DHT22;275;48.492;9.214;2022-10-16T03:19:18;19.90;43.00
578;DHT22;275;48.492;9.214;2022-10-16T03:21:46;20.00;42.90
578;DHT22;275;48.492;9.214;2022-10-16T03:24:13;19.90;43.50
578;DHT22;275;48.492;9.214;2022-10-16T03:26:40;19.80;44.50
578;DHT22;275;48.492;9.214;2022-10-16T03:29:07;19.50;45.50
578;DHT22;275;48.492;9.214;2022-10-16T03:31:34;19.50;45.40
578;DHT22;275;48.492;9.214;2022-10-16T03:34:01;19.70;45.10
578;DHT22;275;48.492;9.214;2022-10-16T03:36:28;19.60;45.00
578;DHT22;275;48.492;9.214;2022-10-16T03:38:56;19.10;46.20
578;DHT22;275;48.492;9.214;2022-10-16T03:41:23;19.30;46.10
578;DHT22;275;48.492;9.214;2022-10-16T03:43:49;19.40;45.40
578;DHT22;275;48.492;9.214;2022-10-16T03:46:16;19.10;46.50
578;DHT22;275;48.492;9.214;2022-10-16T03:48:43;18.80;48.00
578;DHT22;275;48.492;9.214;2022-10-16T03:51:10;18.70;47.90
578;DHT22;275;48.492;9.214;2022-10-16T03:53:37;18.50;48.70
578;DHT22;275;48.492;9.214;2022-10-16T03:56:05;18.60;48.50
578;DHT22;275;48.492;9.214;2022-10-16T03:58:32;18.70;48.20
578;DHT22;275;48.492;9.214;2022-10-16T04:00:59;18.20;49.40
578;DHT22;275;48.492;9.214;2022-10-16T04:03:26;18.70;48.90
578;DHT22;275;48.492;9.214;2022-10-16T04:05:53;18.80;47.90
578;DHT22;275;48.492;9.214;2022-10-16T04:08:19;19.30;47.20
578;DHT22;275;48.492;9.214;2022-10-16T04:10:47;19.30;46.80
578;DHT22;275;48.492;9.214;2022-10-16T04:13:15;19.60;46.00
578;DHT22;275;48.492;9.214;2022-10-16T04:15:42;19.60;46.20
578;DHT22;275;48.492;9.214;2022-10-16T04:18:09;19.60;46.20
578;DHT22;275;48.492;9.214;2022-10-16T04:20:36;19.60;46.30
578;DHT22;275;48.492;9.214;2022-10-16T04:23:03;19.50;46.70
578;DHT22;275;48.492;9.214;2022-10-16T04:25:30;18.70;48.40
578;DHT22;275;48.492;9.214;2022-10-16T04:27:57;18.60;48.60
578;DHT22;275;48.492;9.214;2022-10-16T04:30:25;18.80;48.50
578;DHT22;275;48.492;9.214;2022-10-16T04:32:52;18.70;48.60
578;DHT22;275;48.492;9.214;2022-10-16T04:35:20;18.40;49.30
578;DHT22;275;48.492;9.214;2022-10-16T04:37:47;18.70;48.40
578;DHT22;275;48.492;9.214;2022-10-16T04:40:14;19.20;47.60
578;DHT22;275;48.492;9.214;2022-10-16T04:42:41;19.30;46.90
578;DHT22;275;48.492;9.214;2022-10-16T04:45:08;19.30;46.90
578;DHT22;275;48.492;9.214;2022-10-16T04:47:37;19.40;47.00
578;DHT22;275;48.492;9.214;2022-10-16T04:50:04;19.50;46.60
578;DHT22;275;48.492;9.214;2022-10-16T04:52:31;19.60;46.40
578;DHT22;275;48.492;9.214;2022-10-16T04:54:58;19.40;46.80
578;DHT22;275;48.492;9.214;2022-10-16T04:57:27;19.60;46.20
578;DHT22;275;48.492;9.214;2022-10-16T04:59:54;19.50;46.40
578;DHT22;275;48.492;9.214;2022-10-16T05:02:21;19.70;46.10
578;DHT22;275;48.492;9.214;2022-10-16T05:04:49;19.70;46.00
578;DHT22;275;48.492;9.214;2022-10-16T05:07:16;19.60;46.20
578;DHT22;275;48.492;9.214;2022-10-16T05:09:43;19.50;46.60
578;DHT22;275;48.492;9.214;2022-10-16T05:12:09;19.20;47.20
578;DHT22;275;48.492;9.214;2022-10-16T05:14:36;19.20;47.20
578;DHT22;275;48.492;9.214;2022-10-16T05:17:03;19.20;47.30
578;DHT22;275;48.492;9.214;2022-10-16T05:19:30;19.00;47.80
578;DHT22;275;48.492;9.214;2022-10-16T05:21:58;19.00;47.80
578;DHT22;275;48.492;9.214;2022-10-16T05:24:25;19.10;48.40
578;DHT22;275;48.492;9.214;2022-10-16T05:26:52;19.10;47.60
578;DHT22;275;48.492;9.214;2022-10-16T05:29:19;19.00;47.70
578;DHT22;275;48.492;9.214;2022-10-16T05:31:46;18.60;48.80
578;DHT22;275;48.492;9.214;2022-10-16T05:34:13;19.00;47.90
578;DHT22;275;48.492;9.214;2022-10-16T05:36:40;19.20;47.60
578;DHT22;275;48.492;9.214;2022-10-16T05:39:08;19.10;47.80
578;DHT22;275;48.492;9.214;2022-10-16T05:41:35;19.00;47.60
578;DHT22;275;48.492;9.214;2022-10-16T05:44:04;19.20;47.30
578;DHT22;275;48.492;9.214;2022-10-16T05:46:31;18.80;48.20
578;DHT22;275;48.492;9.214;2022-10-16T05:48:58;18.80;48.30
578;DHT22;275;48.492;9.214;2022-10-16T05:51:25;18.90;48.00
578;DHT22;275;48.492;9.214;2022-10-16T05:53:52;18.90;48.00
578;DHT22;275;48.492;9.214;2022-10-16T05:56:20;19.00;48.00
578;DHT22;275;48.492;9.214;2022-10-16T05:58:47;18.90;48.00
578;DHT22;275;48.492;9.214;2022-10-16T06:01:16;19.10;47.80
578;DHT22;275;48.492;9.214;2022-10-16T06:03:43;19.30;47.40
578;DHT22;275;48.492;9.214;2022-10-16T06:06:11;19.30;47.20
578;DHT22;275;48.492;9.214;2022-10-16T06:08:39;19.40;46.80
578;DHT22;275;48.492;9.214;2022-10-16T06:11:08;19.40;46.70
578;DHT22;275;48.492;9.214;2022-10-16T06:13:37;19.60;46.50
578;DHT22;275;48.492;9.214;2022-10-16T06:16:05;19.60;46.30
578;DHT22;275;48.492;9.214;2022-10-16T06:18:32;19.80;45.70
578;DHT22;275;48.492;9.214;2022-10-16T06:20:58;19.80;45.60
578;DHT22;275;48.492;9.214;2022-10-16T06:23:28;19.50;46.30
578;DHT22;275;48.492;9.214;2022-10-16T06:26:04;19.60;46.30
578;DHT22;275;48.492;9.214;2022-10-16T06:28:31;19.60;46.00
578;DHT22;275;48.492;9.214;2022-10-16T06:31:00;19.50;46.30
578;DHT22;275;48.492;9.214;2022-10-16T06:33:27;19.60;46.00
578;DHT22;275;48.492;9.214;2022-10-16T06:35:54;19.50;46.00
578;DHT22;275;48.492;9.214;2022-10-16T06:38:26;19.40;46.60
578;DHT22;275;48.492;9.214;2022-10-16T06:40:53;19.60;46.30
578;DHT22;275;48.492;9.214;2022-10-16T06:43:20;19.80;46.20
578;DHT22;275;48.492;9.214;2022-10-16T06:45:50;19.90;45.80
578;DHT22;275;48.492;9.214;2022-10-16T06:48:19;20.30;44.70
578;DHT22;275;48.492;9.214;2022-10-16T06:50:55;20.30;45.40
578;DHT22;275;48.492;9.214;2022-10-16T06:53:22;20.30;44.80
578;DHT22;275;48.492;9.214;2022-10-16T06:55:49;20.60;44.10
578;DHT22;275;48.492;9.214;2022-10-16T06:58:16;20.60;44.00
578;DHT22;275;48.492;9.214;2022-10-16T07:00:43;20.70;43.90
578;DHT22;275;48.492;9.214;2022-10-16T07:03:10;20.60;44.10
578;DHT22;275;48.492;9.214;2022-10-16T07:05:39;20.30;44.30
578;DHT22;275;48.492;9.214;2022-10-16T07:08:06;20.20;45.10
578;DHT22;275;48.492;9.214;2022-10-16T07:10:33;20.30;44.80
578;DHT22;275;48.492;9.214;2022-10-16T07:13:00;20.50;44.40
578;DHT22;275;48.492;9.214;2022-10-16T07:15:27;20.60;43.90
578;DHT22;275;48.492;9.214;2022-10-16T07:17:54;20.80;43.70
578;DHT22;275;48.492;9.214;2022-10-16T07:20:21;21.00;43.20
578;DHT22;275;48.492;9.214;2022-10-16T07:22:49;21.20;42.60
578;DHT22;275;48.492;9.214;2022-10-16T07:25:16;21.20;42.70
578;DHT22;275;48.492;9.214;2022-10-16T07:27:43;21.50;42.10
578;DHT22;275;48.492;9.214;2022-10-16T07:30:10;21.60;41.70
578;DHT22;275;48.492;9.214;2022-10-16T07:32:37;21.80;41.50
578;DHT22;275;48.492;9.214;2022-10-16T07:35:05;21.90;41.20
578;DHT22;275;48.492;9.214;2022-10-16T07:37:32;21.90;41.30
578;DHT22;275;48.492;9.214;2022-10-16T07:40:00;22.00;40.70
578;DHT22;275;48.492;9.214;2022-10-16T07:42:27;21.90;41.30
578;DHT22;275;48.492;9.214;2022-10-16T07:44:54;21.90;41.50
578;DHT22;275;48.492;9.214;2022-10-16T07:47:22;21.50;42.30
578;DHT22;275;48.492;9.214;2022-10-16T07:49:49;21.50;42.70
578;DHT22;275;48.492;9.214;2022-10-16T07:52:16;21.90;41.70
578;DHT22;275;48.492;9.214;2022-10-16T07:54:42;22.20;41.20
578;DHT22;275;48.492;9.214;2022-10-16T07:57:11;22.40;40.50
578;DHT22;275;48.492;9.214;2022-10-16T07:59:44;22.60;40.20
578;DHT22;275;48.492;9.214;2022-10-16T08:02:11;22.80;39.80
578;DHT22;275;48.492;9.214;2022-10-16T08:04:38;22.70;39.50
578;DHT22;275;48.492;9.214;2022-10-16T08:07:06;22.60;39.70
578;DHT22;275;48.492;9.214;2022-10-16T08:09:33;22.40;40.40
578;DHT22;275;48.492;9.214;2022-10-16T08:12:00;22.00;41.70
578;DHT22;275;48.492;9.214;2022-10-16T08:14:29;21.80;42.10
578;DHT22;275;48.492;9.214;2022-10-16T08:16:56;22.40;41.10
578;DHT22;275;48.492;9.214;2022-10-16T08:19:23;22.90;39.70
578;DHT22;275;48.492;9.214;2022-10-16T08:21:49;22.60;40.20
578;DHT22;275;48.492;9.214;2022-10-16T08:24:16;22.80;40.20
578;DHT22;275;48.492;9.214;2022-10-16T08:26:43;22.90;39.50
578;DHT22;275;48.492;9.214;2022-10-16T08:29:10;23.40;38.60
578;DHT22;275;48.492;9.214;2022-10-16T08:31:38;23.20;39.00
578;DHT22;275;48.492;9.214;2022-10-16T08:34:05;23.80;37.80
578;DHT22;275;48.492;9.214;2022-10-16T08:36:32;23.70;37.90
578;DHT22;275;48.492;9.214;2022-10-16T08:38:58;23.80;37.60
578;DHT22;275;48.492;9.214;2022-10-16T08:45:01;24.20;37.10
578;DHT22;275;48.492;9.214;2022-10-16T08:47:42;24.30;36.40
578;DHT22;275;48.492;9.214;2022-10-16T08:50:13;24.20;37.20
578;DHT22;275;48.492;9.214;2022-10-16T08:52:44;24.50;36.70
578;DHT22;275;48.492;9.214;2022-10-16T08:58:12;24.50;37.10
578;DHT22;275;48.492;9.214;2022-10-16T09:00:39;24.20;37.70
578;DHT22;275;48.492;9.214;2022-10-16T09:03:22;24.10;38.00
578;DHT22;275;48.492;9.214;2022-10-16T09:08:59;24.40;36.70
578;DHT22;275;48.492;9.214;2022-10-16T09:11:35;24.40;37.10
578;DHT22;275;48.492;9.214;2022-10-16T09:14:15;25.10;36.10
578;DHT22;275;48.492;9.214;2022-10-16T09:16:50;25.70;34.80
578;DHT22;275;48.492;9.214;2022-10-16T09:19:24;26.00;33.20
578;DHT22;275;48.492;9.214;2022-10-16T09:21:54;26.10;32.20
578;DHT22;275;48.492;9.214;2022-10-16T09:24:25;25.90;31.60
578;DHT22;275;48.492;9.214;2022-10-16T09:26:52;25.50;32.00
578;DHT22;275;48.492;9.214;2022-10-16T09:29:20;25.50;32.10
578;DHT22;275;48.492;9.214;2022-10-16T09:31:50;25.50;32.60
578;DHT22;275;48.492;9.214;2022-10-16T09:34:24;26.00;30.30
578;DHT22;275;48.492;9.214;2022-10-16T09:36:56;26.20;29.90
578;DHT22;275;48.492;9.214;2022-10-16T09:39:23;26.60;29.20
578;DHT22;275;48.492;9.214;2022-10-16T09:41:51;26.60;29.00
578;DHT22;275;48.492;9.214;2022-10-16T09:44:21;26.20;29.50
578;DHT22;275;48.492;9.214;2022-10-16T09:47:00;26.50;29.50
578;DHT22;275;48.492;9.214;2022-10-16T09:49:28;27.00;28.70
578;DHT22;275;48.492;9.214;2022-10-16T09:52:03;26.90;28.50
578;DHT22;275;48.492;9.214;2022-10-16T09:54:30;26.70;28.80
578;DHT22;275;48.492;9.214;2022-10-16T09:57:04;26.00;29.80
578;DHT22;275;48.492;9.214;2022-10-16T09:59:31;25.90;29.90
578;DHT22;275;48.492;9.214;2022-10-16T10:02:03;26.00;29.90
578;DHT22;275;48.492;9.214;2022-10-16T10:04:40;25.90;29.70
578;DHT22;275;48.492;9.214;2022-10-16T10:07:17;25.90;30.60
578;DHT22;275;48.492;9.214;2022-10-16T10:09:45;26.00;30.00
578;DHT22;275;48.492;9.214;2022-10-16T10:12:21;25.90;30.00
578;DHT22;275;48.492;9.214;2022-10-16T10:14:49;26.10;29.50
578;DHT22;275;48.492;9.214;2022-10-16T10:17:19;26.30;29.20
578;DHT22;275;48.492;9.214;2022-10-16T10:19:50;26.60;28.80
578;DHT22;275;48.492;9.214;2022-10-16T10:22:24;26.70;28.50
578;DHT22;275;48.492;9.214;2022-10-16T10:28:00;27.30;28.10
578;DHT22;275;48.492;9.214;2022-10-16T10:30:36;28.80;26.20
578;DHT22;275;48.492;9.214;2022-10-16T10:33:17;32.10;22.70
578;DHT22;275;48.492;9.214;2022-10-16T10:36:10;35.50;18.90
578;DHT22;275;48.492;9.214;2022-10-16T10:38:44;38.40;15.40
578;DHT22;275;48.492;9.214;2022-10-16T10:41:26;39.70;13.70
578;DHT22;275;48.492;9.214;2022-10-16T10:44:03;40.90;12.30
578;DHT22;275;48.492;9.214;2022-10-16T10:46:36;41.00;11.60
578;DHT22;275;48.492;9.214;2022-10-16T10:49:32;40.20;11.80
578;DHT22;275;48.492;9.214;2022-10-16T10:52:13;38.90;12.40
578;DHT22;275;48.492;9.214;2022-10-16T10:54:50;35.70;15.70
578;DHT22;275;48.492;9.214;2022-10-16T10:57:22;34.10;17.00
578;DHT22;275;48.492;9.214;2022-10-16T11:00:06;32.40;18.50
578;DHT22;275;48.492;9.214;2022-10-16T11:02:38;31.00;20.10
578;DHT22;275;48.492;9.214;2022-10-16T11:05:33;30.20;21.10
578;DHT22;275;48.492;9.214;2022-10-16T11:08:08;29.70;21.90
578;DHT22;275;48.492;9.214;2022-10-16T11:10:42;27.60;21.50
578;DHT22;275;48.492;9.214;2022-10-16T11:13:19;25.90;24.20
578;DHT22;275;48.492;9.214;2022-10-16T11:15:48;25.20;25.40
578;DHT22;275;48.492;9.214;2022-10-16T11:18:20;25.60;24.20
578;DHT22;275;48.492;9.214;2022-10-16T11:20:52;25.40;24.40
578;DHT22;275;48.492;9.214;2022-10-16T11:23:25;24.90;24.90
578;DHT22;275;48.492;9.214;2022-10-16T11:25:55;25.30;24.60
578;DHT22;275;48.492;9.214;2022-10-16T11:28:27;25.90;24.20
578;DHT22;275;48.492;9.214;2022-10-16T11:30:59;26.20;23.40
578;DHT22;275;48.492;9.214;2022-10-16T11:33:32;26.60;23.10
578;DHT22;275;48.492;9.214;2022-10-16T11:36:08;26.90;22.50
578;DHT22;275;48.492;9.214;2022-10-16T11:38:45;26.30;23.10
578;DHT22;275;48.492;9.214;2022-10-16T11:41:22;25.90;23.90
578;DHT22;275;48.492;9.214;2022-10-16T11:44:00;26.20;23.90
578;DHT22;275;48.492;9.214;2022-10-16T11:46:31;25.70;24.10
578;DHT22;275;48.492;9.214;2022-10-16T11:49:03;25.70;24.70
578;DHT22;275;48.492;9.214;2022-10-16T11:51:36;26.50;23.00
578;DHT22;275;48.492;9.214;2022-10-16T11:54:14;26.50;23.50
578;DHT22;275;48.492;9.214;2022-10-16T11:56:45;26.90;22.60
578;DHT22;275;48.492;9.214;2022-10-16T11:59:19;27.30;22.40
578;DHT22;275;48.492;9.214;2022-10-16T12:01:50;27.50;22.10
578;DHT22;275;48.492;9.214;2022-10-16T12:04:22;27.60;22.30
578;DHT22;275;48.492;9.214;2022-10-16T12:06:57;26.70;23.00
578;DHT22;275;48.492;9.214;2022-10-16T12:09:29;26.20;23.80
578;DHT22;275;48.492;9.214;2022-10-16T12:11:56;27.30;22.60
578;DHT22;275;48.492;9.214;2022-10-16T12:14:35;28.30;21.30
578;DHT22;275;48.492;9.214;2022-10-16T12:17:04;29.90;19.80
578;DHT22;275;48.492;9.214;2022-10-16T12:19:57;32.60;17.00
578;DHT22;275;48.492;9.214;2022-10-16T12:22:28;34.80;14.50
578;DHT22;275;48.492;9.214;2022-10-16T12:24:57;35.50;14.40
578;DHT22;275;48.492;9.214;2022-10-16T12:27:28;36.70;12.60
578;DHT22;275;48.492;9.214;2022-10-16T12:29:57;37.90;11.30
578;DHT22;275;48.492;9.214;2022-10-16T12:32:29;37.40;11.50
578;DHT22;275;48.492;9.214;2022-10-16T12:34:57;38.30;11.10
578;DHT22;275;48.492;9.214;2022-10-16T12:37:27;39.20;10.10
578;DHT22;275;48.492;9.214;2022-10-16T12:39:56;37.70;11.20
578;DHT22;275;48.492;9.214;2022-10-16T12:42:33;37.10;11.90
578;DHT22;275;48.492;9.214;2022-10-16T12:45:01;37.80;11.20
578;DHT22;275;48.492;9.214;2022-10-16T12:47:46;38.10;10.90
578;DHT22;275;48.492;9.214;2022-10-16T12:50:32;38.90;10.50
578;DHT22;275;48.492;9.214;2022-10-16T12:52:59;39.40;9.80
578;DHT22;275;48.492;9.214;2022-10-16T12:55:34;39.20;9.90
578;DHT22;275;48.492;9.214;2022-10-16T13:01:09;38.70;10.00
578;DHT22;275;48.492;9.214;2022-10-16T13:03:53;38.50;10.40
578;DHT22;275;48.492;9.214;2022-10-16T13:06:32;38.60;9.90
578;DHT22;275;48.492;9.214;2022-10-16T13:09:14;39.00;9.70
578;DHT22;275;48.492;9.214;2022-10-16T13:12:00;40.00;8.90
578;DHT22;275;48.492;9.214;2022-10-16T13:14:43;40.00;8.90
578;DHT22;275;48.492;9.214;2022-10-16T13:17:21;39.70;8.80
578;DHT22;275;48.492;9.214;2022-10-16T13:19:56;39.30;9.20
578;DHT22;275;48.492;9.214;2022-10-16T13:22:32;38.70;9.80
578;DHT22;275;48.492;9.214;2022-10-16T13:25:10;38.20;10.30
578;DHT22;275;48.492;9.214;2022-10-16T13:27:47;37.60;10.80
578;DHT22;275;48.492;9.214;2022-10-16T13:30:18;37.10;11.30
578;DHT22;275;48.492;9.214;2022-10-16T13:32:47;36.80;11.30
578;DHT22;275;48.492;9.214;2022-10-16T13:35:22;35.20;12.90
578;DHT22;275;48.492;9.214;2022-10-16T13:37:50;34.10;14.50
578;DHT22;275;48.492;9.214;2022-10-16T13:40:22;34.10;14.20
578;DHT22;275;48.492;9.214;2022-10-16T13:42:53;33.60;14.80
578;DHT22;275;48.492;9.214;2022-10-16T13:45:22;34.20;14.30
578;DHT22;275;48.492;9.214;2022-10-16T13:47:49;34.00;14.10
578;DHT22;275;48.492;9.214;2022-10-16T13:50:18;33.40;15.00
578;DHT22;275;48.492;9.214;2022-10-16T13:52:45;33.70;14.90
578;DHT22;275;48.492;9.214;2022-10-16T13:55:13;33.50;15.20
578;DHT22;275;48.492;9.214;2022-10-16T13:57:40;33.90;15.20
578;DHT22;275;48.492;9.214;2022-10-16T14:00:24;33.70;15.10
578;DHT22;275;48.492;9.214;2022-10-16T14:02:58;33.40;15.30
578;DHT22;275;48.492;9.214;2022-10-16T14:05:27;33.40;15.10
578;DHT22;275;48.492;9.214;2022-10-16T14:07:55;33.00;15.80
578;DHT22;275;48.492;9.214;2022-10-16T14:10:25;32.30;16.70
578;DHT22;275;48.492;9.214;2022-10-16T14:12:57;31.30;17.70
578;DHT22;275;48.492;9.214;2022-10-16T14:15:26;30.90;18.00
578;DHT22;275;48.492;9.214;2022-10-16T14:17:53;30.20;18.50
578;DHT22;275;48.492;9.214;2022-10-16T14:20:25;30.00;18.70
578;DHT22;275;48.492;9.214;2022-10-16T14:22:59;29.60;19.40
578;DHT22;275;48.492;9.214;2022-10-16T14:25:29;29.30;19.40
578;DHT22;275;48.492;9.214;2022-10-16T14:28:01;29.20;19.60
578;DHT22;275;48.492;9.214;2022-10-16T14:30:31;29.10;19.60
578;DHT22;275;48.492;9.214;2022-10-16T14:32:59;28.90;20.00
578;DHT22;275;48.492;9.214;2022-10-16T14:35:30;28.70;20.30
578;DHT22;275;48.492;9.214;2022-10-16T14:37:58;28.60;20.40
578;DHT22;275;48.492;9.214;2022-10-16T14:40:27;28.60;20.60
578;DHT22;275;48.492;9.214;2022-10-16T14:42:54;28.70;20.60
578;DHT22;275;48.492;9.214;2022-10-16T14:45:24;28.70;21.00
578;DHT22;275;48.492;9.214;2022-10-16T14:47:55;28.60;21.00
578;DHT22;275;48.492;9.214;2022-10-16T14:50:23;28.70;20.90
578;DHT22;275;48.492;9.214;2022-10-16T14:52:50;28.70;21.00
578;DHT22;275;48.492;9.214;2022-10-16T14:55:17;28.70;21.00
578;DHT22;275;48.492;9.214;2022-10-16T14:57:45;28.50;21.50
578;DHT22;275;48.492;9.214;2022-10-16T15:00:20;28.30;21.90
578;DHT22;275;48.492;9.214;2022-10-16T15:02:48;28.20;22.50
578;DHT22;275;48.492;9.214;2022-10-16T15:05:18;28.10;22.90
578;DHT22;275;48.492;9.214;2022-10-16T15:07:46;27.50;23.50
578;DHT22;275;48.492;9.214;2022-10-16T15:10:14;26.80;24.80
578;DHT22;275;48.492;9.214;2022-10-16T15:12:41;26.60;24.90
578;DHT22;275;48.492;9.214;2022-10-16T15:15:23;26.50;25.20
578;DHT22;275;48.492;9.214;2022-10-16T15:17:52;26.50;25.70
578;DHT22;275;48.492;9.214;2022-10-16T15:20:22;26.60;26.80
578;DHT22;275;48.492;9.214;2022-10-16T15:22:49;26.10;28.20
578;DHT22;275;48.492;9.214;2022-10-16T15:25:30;25.80;29.00
578;DHT22;275;48.492;9.214;2022-10-16T15:27:57;25.80;29.30
578;DHT22;275;48.492;9.214;2022-10-16T15:30:25;25.80;29.50
578;DHT22;275;48.492;9.214;2022-10-16T15:32:52;26.00;29.40
578;DHT22;275;48.492;9.214;2022-10-16T15:35:18;26.40;29.00
578;DHT22;275;48.492;9.214;2022-10-16T15:37:47;26.60;28.60
578;DHT22;275;48.492;9.214;2022-10-16T15:40:15;26.50;28.90
578;DHT22;275;48.492;9.214;2022-10-16T15:42:43;25.80;29.90
578;DHT22;275;48.492;9.214;2022-10-16T15:45:10;26.00;29.50
578;DHT22;275;48.492;9.214;2022-10-16T15:47:37;25.90;29.60
578;DHT22;275;48.492;9.214;2022-10-16T15:50:05;26.40;28.60
578;DHT22;275;48.492;9.214;2022-10-16T15:52:32;26.60;28.30
578;DHT22;275;48.492;9.214;2022-10-16T15:55:00;26.60;28.10
578;DHT22;275;48.492;9.214;2022-10-16T15:57:28;26.60;28.90
578;DHT22;275;48.492;9.214;2022-10-16T15:59:55;26.60;28.40
578;DHT22;275;48.492;9.214;2022-10-16T16:02:22;26.60;28.60
578;DHT22;275;48.492;9.214;2022-10-16T16:04:48;26.10;29.60
578;DHT22;275;48.492;9.214;2022-10-16T16:07:15;25.30;30.60
578;DHT22;275;48.492;9.214;2022-10-16T16:09:42;25.40;30.70
578;DHT22;275;48.492;9.214;2022-10-16T16:12:11;25.50;30.30
578;DHT22;275;48.492;9.214;2022-10-16T16:14:38;25.30;31.00
578;DHT22;275;48.492;9.214;2022-10-16T16:17:05;24.80;31.80
578;DHT22;275;48.492;9.214;2022-10-16T16:19:32;25.00;31.70
578;DHT22;275;48.492;9.214;2022-10-16T16:21:59;25.10;31.50
578;DHT22;275;48.492;9.214;2022-10-16T16:24:26;24.70;32.30
578;DHT22;275;48.492;9.214;2022-10-16T16:26:53;24.30;34.40
578;DHT22;275;48.492;9.214;2022-10-16T16:29:21;24.20;33.80
578;DHT22;275;48.492;9.214;2022-10-16T16:31:48;24.40;33.40
578;DHT22;275;48.492;9.214;2022-10-16T16:34:15;24.40;32.90
578;DHT22;275;48.492;9.214;2022-10-16T16:36:42;24.80;32.60
578;DHT22;275;48.492;9.214;2022-10-16T16:39:08;25.00;31.90
578;DHT22;275;48.492;9.214;2022-10-16T16:41:36;24.80;32.10
578;DHT22;275;48.492;9.214;2022-10-16T16:44:04;24.50;33.10
578;DHT22;275;48.492;9.214;2022-10-16T16:46:33;24.30;33.50
578;DHT22;275;48.492;9.214;2022-10-16T16:49:01;24.20;33.40
578;DHT22;275;48.492;9.214;2022-10-16T16:51:28;24.40;33.00
578;DHT22;275;48.492;9.214;2022-10-16T16:53:55;24.10;33.60
578;DHT22;275;48.492;9.214;2022-10-16T16:56:23;24.10;33.60
578;DHT22;275;48.492;9.214;2022-10-16T16:58:52;24.10;34.00
578;DHT22;275;48.492;9.214;2022-10-16T17:01:21;24.10;34.00
578;DHT22;275;48.492;9.214;2022-10-16T17:03:51;24.00;34.10
578;DHT22;275;48.492;9.214;2022-10-16T17:06:18;23.50;35.40
578;DHT22;275;48.492;9.214;2022-10-16T17:08:45;22.80;37.00
578;DHT22;275;48.492;9.214;2022-10-16T17:11:13;22.70;36.90